Time;durP1;ratioP1;P1;durP2;ratioP2;P2;SDS_P1;SDS_P2;PMS_P1;PMS_P2;Temp;Humidity;BMP_temperature;BMP_pressure;BME280_temperature;BME280_humidity;BME280_pressure;Samples;Min_cycle;Max_cycle;Signal;HPM_P1;HPM_P2
2022/04/29 00:00:54;;;;;;;10.93;5.78;;;;;;;26.67;17.53;99172.75;5082775;28;20028;-80
2022/04/29 00:03:21;;;;;;;9.13;5.43;;;;;;;26.58;17.84;99173.25;5084710;28;20048;-80
2022/04/29 00:05:48;;;;;;;10.75;5.72;;;;;;;26.52;17.90;99177.78;5081444;28;20077;-80
2022/04/29 00:08:15;;;;;;;13.57;6.00;;;;;;;26.49;17.92;99172.22;5082895;28;20035;-80
2022/04/29 00:10:43;;;;;;;9.40;5.68;;;;;;;26.43;17.71;99168.25;5083287;28;20052;-80
2022/04/29 00:13:12;;;;;;;11.38;5.28;;;;;;;26.53;17.55;99173.75;5083275;28;20036;-80
2022/04/29 00:15:39;;;;;;;10.27;5.43;;;;;;;26.65;17.35;99169.56;5082577;28;20074;-80
2022/04/29 00:18:06;;;;;;;8.70;5.10;;;;;;;26.42;17.50;99175.91;5066451;28;20048;-80
2022/04/29 00:20:32;;;;;;;9.07;5.30;;;;;;;26.62;17.37;99174.03;5080761;28;20067;-80
2022/04/29 00:22:58;;;;;;;9.93;4.90;;;;;;;26.78;17.18;99169.78;5086008;28;20039;-80
2022/04/29 00:25:24;;;;;;;7.15;4.85;;;;;;;26.66;17.08;99169.13;5083850;28;20036;-80
2022/04/29 00:27:50;;;;;;;10.70;4.78;;;;;;;26.67;16.97;99169.94;5079884;28;20158;-79
2022/04/29 00:30:17;;;;;;;12.88;5.65;;;;;;;26.74;17.28;99162.19;5083964;28;20051;-80
2022/04/29 00:32:43;;;;;;;7.97;4.45;;;;;;;26.57;16.94;99162.44;5071437;28;20032;-80
2022/04/29 00:35:10;;;;;;;10.88;5.65;;;;;;;26.49;17.42;99163.78;5080851;28;20679;-80
2022/04/29 00:37:44;;;;;;;12.35;5.28;;;;;;;26.37;17.23;99164.34;5080450;28;20513;-79
2022/04/29 00:40:17;;;;;;;12.00;5.13;;;;;;;26.43;17.49;99166.25;5083176;28;20128;-80
2022/04/29 00:42:45;;;;;;;9.23;4.45;;;;;;;26.44;17.31;99167.84;5084947;28;20068;-79
2022/04/29 00:45:15;;;;;;;10.73;5.38;;;;;;;26.44;17.61;99162.19;5082455;28;20051;-80
2022/04/29 00:47:42;;;;;;;10.90;5.70;;;;;;;26.33;17.79;99155.94;5083258;28;20028;-79
2022/04/29 00:50:10;;;;;;;9.40;5.45;;;;;;;26.25;17.84;99159.28;5085434;28;20033;-79
2022/04/29 00:52:41;;;;;;;8.27;4.93;;;;;;;26.08;17.75;99153.44;5078733;28;20119;-80
2022/04/29 00:55:09;;;;;;;13.63;4.65;;;;;;;26.15;17.51;99155.38;5085458;28;20032;-80
2022/04/29 00:57:47;;;;;;;8.82;5.22;;;;;;;25.89;17.89;99156.09;5084707;28;20036;-79
2022/04/29 01:00:14;;;;;;;8.30;5.20;;;;;;;26.14;17.81;99153.78;5084878;28;20052;-80
2022/04/29 01:02:45;;;;;;;9.25;5.22;;;;;;;26.14;17.79;99156.59;5087612;28;20069;-80
2022/04/29 01:05:14;;;;;;;9.82;4.75;;;;;;;26.29;17.83;99154.38;5084244;28;20051;-79
2022/04/29 01:07:42;;;;;;;9.43;5.18;;;;;;;26.63;17.19;99152.25;5080923;28;20021;-79
2022/04/29 01:10:10;;;;;;;7.03;5.10;;;;;;;26.80;16.89;99148.41;5079541;28;20055;-79
2022/04/29 01:12:38;;;;;;;8.07;5.00;;;;;;;26.47;17.14;99154.91;5086323;28;20562;-79
2022/04/29 01:15:13;;;;;;;10.57;5.10;;;;;;;26.24;17.43;99152.84;5082399;28;20060;-79
2022/04/29 01:17:40;;;;;;;7.82;5.05;;;;;;;26.21;17.51;99150.88;5084433;28;20552;-80
2022/04/29 01:20:08;;;;;;;10.30;6.13;;;;;;;26.17;17.86;99146.50;5080494;28;20120;-80
2022/04/29 01:22:35;;;;;;;9.63;5.15;;;;;;;26.13;17.79;99142.94;5084611;28;20107;-79
2022/04/29 01:25:02;;;;;;;9.07;4.80;;;;;;;26.21;17.67;99138.81;5080844;28;20104;-79
2022/04/29 01:27:29;;;;;;;8.85;4.82;;;;;;;26.14;17.55;99136.88;5085974;28;20040;-79
2022/04/29 01:29:58;;;;;;;11.52;4.80;;;;;;;25.81;17.73;99141.28;5085897;28;20504;-79
2022/04/29 01:32:26;;;;;;;7.50;4.38;;;;;;;25.97;17.62;99138.72;5082785;28;20025;-80
2022/04/29 01:34:53;;;;;;;8.93;5.45;;;;;;;26.17;17.70;99130.41;5081346;28;20044;-79
2022/04/29 01:37:19;;;;;;;10.00;5.22;;;;;;;26.05;17.45;99133.75;5081827;28;20025;-79
2022/04/29 01:39:45;;;;;;;9.93;4.75;;;;;;;25.91;17.65;99133.94;5078926;28;20040;-79
2022/04/29 01:42:11;;;;;;;6.00;4.00;;;;;;;25.95;17.97;99134.72;5083833;28;20063;-80
2022/04/29 01:44:37;;;;;;;7.57;4.25;;;;;;;25.85;17.95;99133.63;5080802;28;20028;-79
2022/04/29 01:47:03;;;;;;;8.25;5.20;;;;;;;25.70;18.10;99122.94;5079578;28;20028;-79
2022/04/29 01:49:29;;;;;;;9.55;5.03;;;;;;;25.68;17.84;99128.22;5079313;28;20516;-79
2022/04/29 01:51:57;;;;;;;7.68;4.32;;;;;;;25.66;18.06;99127.84;5083510;28;20045;-79
2022/04/29 01:54:23;;;;;;;8.75;4.85;;;;;;;25.81;17.88;99130.03;5083483;28;20097;-79
2022/04/29 01:56:52;;;;;;;8.70;4.55;;;;;;;25.75;17.79;99119.69;5082351;28;20032;-79
2022/04/29 01:59:19;;;;;;;8.00;4.07;;;;;;;25.50;17.92;99133.25;5085588;28;20035;-80
2022/04/29 02:01:48;;;;;;;9.07;4.40;;;;;;;25.63;17.97;99137.91;5082972;28;20024;-79
2022/04/29 02:04:15;;;;;;;8.65;5.00;;;;;;;25.67;18.03;99137.88;5084368;28;20028;-79
2022/04/29 02:06:42;;;;;;;10.50;5.50;;;;;;;25.77;18.00;99132.13;5083811;28;20032;-80
2022/04/29 02:09:09;;;;;;;7.43;4.35;;;;;;;25.66;17.76;99125.03;5083341;28;20769;-79
2022/04/29 02:11:35;;;;;;;8.32;3.65;;;;;;;25.33;18.04;99135.00;5087404;28;20169;-80
2022/04/29 02:14:01;;;;;;;7.32;4.38;;;;;;;25.17;18.04;99129.94;5083080;28;20032;-79
2022/04/29 02:16:28;;;;;;;7.45;4.70;;;;;;;25.31;18.06;99137.44;5067873;28;20020;-79
2022/04/29 02:18:54;;;;;;;7.65;4.18;;;;;;;25.37;18.18;99130.94;5083744;28;20039;-79
2022/04/29 02:21:20;;;;;;;7.40;4.00;;;;;;;25.27;18.35;99128.25;5081631;28;20031;-79
2022/04/29 02:23:46;;;;;;;8.15;4.15;;;;;;;25.17;18.26;99135.56;5081654;28;20120;-79
2022/04/29 02:26:13;;;;;;;10.38;5.05;;;;;;;25.35;18.17;99127.75;5080474;28;20063;-79
2022/04/29 02:28:39;;;;;;;9.27;5.15;;;;;;;25.59;17.91;99133.53;5079957;28;20050;-80
2022/04/29 02:31:05;;;;;;;7.28;4.22;;;;;;;25.84;17.52;99126.41;5077409;28;20032;-79
2022/04/29 02:33:32;;;;;;;9.02;4.55;;;;;;;25.86;17.41;99123.16;5076359;28;20025;-79
2022/04/29 02:35:59;;;;;;;7.45;4.32;;;;;;;25.98;17.23;99126.22;5077561;28;20111;-79
2022/04/29 02:38:25;;;;;;;8.63;4.35;;;;;;;26.25;17.14;99125.50;5064592;28;20386;-79
2022/04/29 02:40:51;;;;;;;8.27;4.57;;;;;;;26.21;16.92;99122.72;5075567;28;20055;-79
2022/04/29 02:43:20;;;;;;;9.27;4.75;;;;;;;26.25;16.75;99122.69;5061435;28;20032;-79
2022/04/29 02:45:47;;;;;;;10.50;4.90;;;;;;;26.31;16.67;99121.78;5063627;28;20043;-79
2022/04/29 02:48:14;;;;;;;6.35;4.68;;;;;;;26.31;16.73;99118.97;5075266;28;20035;-79
2022/04/29 02:50:40;;;;;;;8.82;4.57;;;;;;;26.29;16.81;99121.41;5073091;28;20038;-79
2022/04/29 02:53:06;;;;;;;10.27;5.22;;;;;;;26.28;16.61;99121.84;5076832;28;20032;-79
2022/04/29 02:55:32;;;;;;;9.52;4.95;;;;;;;26.25;16.70;99114.22;5075710;28;20040;-79
2022/04/29 02:57:58;;;;;;;8.18;4.13;;;;;;;26.27;16.85;99118.22;5072053;28;20093;-79
2022/04/29 03:00:24;;;;;;;8.10;4.72;;;;;;;26.15;16.96;99121.59;5075545;28;20109;-79
2022/04/29 03:02:50;;;;;;;6.95;4.15;;;;;;;26.15;16.49;99120.81;5077033;28;20120;-79
2022/04/29 03:05:17;;;;;;;6.93;4.20;;;;;;;25.93;17.23;99121.06;5075354;28;20459;-79
2022/04/29 03:07:43;;;;;;;11.20;5.32;;;;;;;25.77;17.39;99122.88;5076522;28;20424;-79
2022/04/29 03:10:09;;;;;;;12.00;5.43;;;;;;;25.92;17.14;99130.72;5078965;28;20059;-79
2022/04/29 03:12:35;;;;;;;9.27;4.88;;;;;;;25.85;17.05;99124.38;5079171;28;20093;-79
2022/04/29 03:15:18;;;;;;;7.15;4.47;;;;;;;25.84;16.97;99134.03;5077155;28;20033;-79
2022/04/29 03:20:35;;;;;;;10.10;4.35;;;;;;;25.72;17.62;99129.75;5082671;28;20040;-79
2022/04/29 03:23:02;;;;;;;;;;;;;;;25.92;17.69;99141.19;5082492;28;20032;-79
2022/04/29 03:25:28;;;;;;;11.32;4.85;;;;;;;25.98;16.81;99133.84;5087322;28;20280;-79
2022/04/29 03:27:54;;;;;;;5.72;4.00;;;;;;;26.06;16.58;99136.19;5086179;28;20165;-79
2022/04/29 03:30:20;;;;;;;6.53;4.05;;;;;;;26.12;16.62;99139.31;5086300;28;20044;-79
2022/04/29 03:32:58;;;;;;;8.73;4.60;;;;;;;26.12;16.29;99142.16;5084545;28;20115;-79
2022/04/29 03:35:25;;;;;;;8.48;4.32;;;;;;;26.18;16.63;99137.66;5089024;28;20050;-79
2022/04/29 03:37:53;;;;;;;7.78;4.82;;;;;;;25.90;16.82;99135.19;5085791;28;20043;-79
2022/04/29 03:40:23;;;;;;;9.48;4.40;;;;;;;25.81;17.39;99144.09;5085072;28;20035;-79
2022/04/29 03:42:52;;;;;;;8.45;4.75;;;;;;;25.77;17.32;99146.19;5085821;28;20154;-79
2022/04/29 03:45:19;;;;;;;7.38;4.53;;;;;;;25.88;17.23;99146.06;5086622;28;20107;-79
2022/04/29 03:47:45;;;;;;;8.27;5.28;;;;;;;26.14;16.70;99142.50;5086322;28;20040;-79
2022/04/29 03:50:12;;;;;;;5.78;3.42;;;;;;;26.33;16.71;99155.13;5084007;28;20037;-79
2022/04/29 03:52:51;;;;;;;7.82;4.40;;;;;;;26.56;16.33;99147.53;5082738;28;20079;-79
2022/04/29 03:55:27;;;;;;;6.30;4.40;;;;;;;26.71;16.34;99156.56;5083591;28;20036;-79
2022/04/29 03:57:53;;;;;;;7.30;4.18;;;;;;;27.10;16.44;99150.31;5085813;28;20085;-79
2022/04/29 04:00:21;;;;;;;7.15;3.92;;;;;;;27.27;16.25;99157.69;5087352;28;20044;-79
2022/04/29 04:02:47;;;;;;;8.50;4.25;;;;;;;26.77;16.82;99157.72;5069712;28;20125;-79
2022/04/29 04:05:13;;;;;;;7.97;4.65;;;;;;;26.44;17.15;99150.16;5080744;28;20492;-80
2022/04/29 04:07:40;;;;;;;6.43;4.15;;;;;;;26.42;17.35;99156.19;5084416;28;20107;-80
2022/04/29 04:10:07;;;;;;;8.23;4.00;;;;;;;26.35;17.52;99155.53;5082246;28;20032;-80
2022/04/29 04:12:51;;;;;;;7.25;4.05;;;;;;;26.27;17.27;99156.84;5088062;28;20044;-80
2022/04/29 04:15:20;;;;;;;6.60;4.57;;;;;;;26.59;17.20;99159.97;5084984;28;20035;-80
2022/04/29 04:17:47;;;;;;;8.52;4.72;;;;;;;26.58;17.31;99155.59;5088355;28;20036;-80
2022/04/29 04:20:14;;;;;;;6.50;4.03;;;;;;;26.60;17.13;99159.56;5082924;28;20105;-79
2022/04/29 04:22:40;;;;;;;10.63;4.80;;;;;;;26.65;17.16;99156.25;5082191;28;20032;-80
2022/04/29 04:25:10;;;;;;;6.10;3.70;;;;;;;26.51;17.45;99159.28;5085484;28;20055;-79
2022/04/29 04:27:36;;;;;;;6.43;3.95;;;;;;;26.90;17.67;99163.56;5081857;28;20089;-80
2022/04/29 04:30:04;;;;;;;6.82;4.53;;;;;;;27.09;17.51;99160.81;5083665;28;20111;-80
2022/04/29 04:32:34;;;;;;;7.97;4.60;;;;;;;27.03;17.80;99158.91;5080784;28;20028;-80
2022/04/29 04:35:00;;;;;;;6.05;3.90;;;;;;;27.29;17.66;99169.31;5080952;28;20031;-80
2022/04/29 04:37:28;;;;;;;10.88;4.30;;;;;;;27.61;17.31;99166.72;5085025;28;20033;-80
2022/04/29 04:39:58;;;;;;;7.90;4.13;;;;;;;27.75;17.31;99160.81;5084654;28;20040;-80
2022/04/29 04:42:24;;;;;;;8.07;3.92;;;;;;;27.89;17.28;99176.69;5083686;28;20127;-79
2022/04/29 04:44:52;;;;;;;7.35;4.45;;;;;;;28.03;17.18;99177.22;5085006;28;20097;-80
2022/04/29 04:47:19;;;;;;;7.00;4.20;;;;;;;28.07;17.32;99179.97;5079021;28;20033;-80
2022/04/29 04:49:45;;;;;;;7.00;4.25;;;;;;;28.31;17.04;99175.81;5079431;28;20396;-80
2022/04/29 04:52:11;;;;;;;10.10;5.65;;;;;;;28.33;16.86;99178.22;5083246;28;20511;-79
2022/04/29 04:54:38;;;;;;;6.68;4.35;;;;;;;28.31;17.49;99183.50;5077354;28;20032;-80
2022/04/29 04:57:05;;;;;;;7.68;4.47;;;;;;;28.70;17.12;99180.63;5080088;28;20091;-80
2022/04/29 04:59:31;;;;;;;8.25;4.88;;;;;;;29.04;16.78;99175.34;5064305;28;20119;-80
2022/04/29 05:01:58;;;;;;;6.03;4.25;;;;;;;29.41;16.42;99185.31;5083719;28;20533;-80
2022/04/29 05:04:24;;;;;;;8.35;4.82;;;;;;;29.37;16.23;99181.81;5080941;28;20111;-79
2022/04/29 05:06:53;;;;;;;7.68;4.15;;;;;;;29.14;16.42;99188.44;5082237;28;20040;-80
2022/04/29 05:09:19;;;;;;;6.03;3.63;;;;;;;29.23;16.95;99185.00;5079286;28;20023;-79
2022/04/29 05:11:45;;;;;;;6.30;4.13;;;;;;;29.21;16.75;99190.31;5081491;28;20044;-81
2022/04/29 05:14:11;;;;;;;6.15;4.22;;;;;;;29.13;17.04;99189.66;5078944;28;20052;-80
2022/04/29 05:16:37;;;;;;;10.38;5.45;;;;;;;29.45;16.79;99191.72;5081623;28;20032;-79
2022/04/29 05:19:03;;;;;;;8.32;4.35;;;;;;;29.72;16.84;99182.88;5082513;28;20028;-78
2022/04/29 05:21:29;;;;;;;6.90;3.90;;;;;;;29.89;16.73;99190.94;5083182;28;20035;-79
2022/04/29 05:23:56;;;;;;;5.40;3.72;;;;;;;30.18;16.64;99196.56;5081841;28;20028;-79
2022/04/29 05:26:22;;;;;;;6.57;4.10;;;;;;;30.41;16.28;99192.69;5081863;28;20032;-80
2022/04/29 05:28:48;;;;;;;5.88;3.45;;;;;;;30.56;16.48;99196.66;5081165;28;20489;-81
2022/04/29 05:31:15;;;;;;;6.53;4.00;;;;;;;30.72;16.22;99190.88;5080237;28;20037;-80
2022/04/29 05:33:42;;;;;;;5.32;3.47;;;;;;;30.78;16.35;99189.09;5079785;28;20028;-80
2022/04/29 05:36:10;;;;;;;5.75;3.55;;;;;;;30.94;15.88;99189.00;5081775;28;20473;-80
2022/04/29 05:44:08;;;;;;;4.72;3.00;;;;;;;31.32;16.09;99189.72;5083286;28;20059;-80
2022/04/29 05:46:35;;;;;;;4.15;3.35;;;;;;;31.60;16.40;99192.88;5082012;28;20021;-80
2022/04/29 05:49:02;;;;;;;7.32;3.75;;;;;;;31.68;14.88;99191.34;5082537;28;20028;-80
2022/04/29 05:51:28;;;;;;;6.80;3.72;;;;;;;31.40;15.67;99196.75;5080618;28;20029;-80
2022/04/29 05:53:54;;;;;;;5.18;3.90;;;;;;;31.11;15.50;99196.13;5084659;28;20025;-80
2022/04/29 05:56:20;;;;;;;5.97;3.55;;;;;;;31.00;15.78;99198.50;5081449;28;20028;-80
2022/04/29 05:58:46;;;;;;;4.43;2.90;;;;;;;31.25;16.24;99192.03;5079220;28;20033;-80
2022/04/29 06:01:12;;;;;;;4.68;2.90;;;;;;;31.61;16.22;99200.94;5079767;28;20157;-80
2022/04/29 06:03:38;;;;;;;5.03;3.20;;;;;;;31.51;15.05;99198.47;5064828;28;20040;-80
2022/04/29 06:06:04;;;;;;;6.38;3.40;;;;;;;30.95;15.52;99201.16;5080435;28;20579;-80
2022/04/29 06:08:30;;;;;;;5.75;3.42;;;;;;;30.56;15.80;99200.28;5081491;28;20028;-80
2022/04/29 06:10:56;;;;;;;6.60;4.45;;;;;;;30.08;15.85;99209.00;5083861;28;20056;-81
2022/04/29 06:13:22;;;;;;;5.30;3.60;;;;;;;29.86;16.28;99217.31;5079804;28;20056;-80
2022/04/29 06:15:48;;;;;;;6.97;3.75;;;;;;;29.72;16.50;99217.66;5081640;28;20033;-80
2022/04/29 06:18:15;;;;;;;6.30;3.72;;;;;;;29.61;16.28;99216.34;5080237;28;20033;-80
2022/04/29 06:20:41;;;;;;;6.43;4.35;;;;;;;29.34;16.86;99223.09;5083256;28;20032;-80
2022/04/29 06:23:07;;;;;;;6.40;3.28;;;;;;;29.56;17.07;99220.50;5080332;28;20039;-80
2022/04/29 06:25:33;;;;;;;5.22;3.55;;;;;;;29.70;16.55;99225.00;5083603;28;20034;-80
2022/04/29 06:27:59;;;;;;;7.43;5.22;;;;;;;29.12;16.83;99221.22;5084643;28;20481;-80
2022/04/29 06:30:25;;;;;;;8.98;4.40;;;;;;;29.10;17.64;99220.88;5080322;28;20474;-80
2022/04/29 06:32:55;;;;;;;7.07;4.63;;;;;;;29.39;16.84;99222.56;5079703;28;20039;-80
2022/04/29 06:35:21;;;;;;;6.55;3.72;;;;;;;29.48;16.51;99230.41;5080724;28;20036;-80
2022/04/29 06:37:47;;;;;;;7.07;4.20;;;;;;;29.57;17.27;99230.59;5083563;28;20029;-80
2022/04/29 06:40:14;;;;;;;8.38;3.70;;;;;;;29.98;16.88;99225.06;5079552;28;20386;-81
2022/04/29 06:42:45;;;;;;;6.50;4.82;;;;;;;29.96;16.83;99233.22;5082282;28;20044;-80
2022/04/29 06:45:11;;;;;;;;;;;;;;;30.53;16.08;99226.69;5087136;28;20396;-80
2022/04/29 06:47:37;;;;;;;5.72;4.07;;;;;;;31.05;16.15;99217.81;5084762;28;19967;-80
2022/04/29 06:50:03;;;;;;;6.38;4.70;;;;;;;30.92;16.31;99224.75;5085687;28;20089;-80
2022/04/29 06:52:29;;;;;;;6.13;3.40;;;;;;;30.19;16.60;99222.84;5085659;28;20058;-80
2022/04/29 06:54:55;;;;;;;5.20;3.83;;;;;;;30.44;16.47;99229.41;5070216;28;20032;-80
2022/04/29 06:57:22;;;;;;;15.30;5.80;;;;;;;30.32;16.51;99230.13;5085957;28;20039;-80
2022/04/29 06:59:49;;;;;;;7.10;4.63;;;;;;;29.79;17.12;99225.19;5087048;28;20422;-81
2022/04/29 07:02:16;;;;;;;5.60;4.35;;;;;;;29.01;18.17;99232.78;5085349;28;20345;-80
2022/04/29 07:04:42;;;;;;;9.00;5.47;;;;;;;28.60;18.33;99246.66;5084318;28;20044;-80
2022/04/29 07:07:11;;;;;;;8.63;5.75;;;;;;;28.20;18.88;99245.84;5085882;28;20051;-80
2022/04/29 07:09:39;;;;;;;8.70;5.50;;;;;;;28.64;18.51;99239.69;5084419;28;20053;-80
2022/04/29 07:12:07;;;;;;;10.07;5.32;;;;;;;29.43;18.34;99239.44;5083790;28;20049;-81
2022/04/29 07:14:34;;;;;;;7.97;5.43;;;;;;;29.49;17.97;99234.84;5087487;28;20127;-81
2022/04/29 07:17:00;;;;;;;7.72;6.05;;;;;;;28.94;18.42;99235.75;5082109;28;20040;-80
2022/04/29 07:19:26;;;;;;;7.60;5.80;;;;;;;28.45;19.03;99240.47;5086762;28;20024;-81
2022/04/29 07:21:52;;;;;;;13.38;8.50;;;;;;;28.79;17.83;99236.53;5083253;28;20030;-80
2022/04/29 07:24:18;;;;;;;11.63;8.60;;;;;;;28.89;17.92;99241.16;5085102;28;20028;-81
2022/04/29 07:26:45;;;;;;;8.75;6.32;;;;;;;28.61;18.15;99231.31;5084717;28;20108;-80
2022/04/29 07:29:11;;;;;;;11.80;6.72;;;;;;;28.69;18.44;99235.53;5085801;28;20129;-80
2022/04/29 07:31:38;;;;;;;13.48;9.00;;;;;;;28.86;17.74;99234.34;5065514;28;20024;-80
2022/04/29 07:34:04;;;;;;;13.30;8.77;;;;;;;28.58;18.09;99232.13;5081343;28;20032;-81
2022/04/29 07:42:07;;;;;;;14.27;8.75;;;;;;;28.97;18.44;99237.72;5062237;28;20050;-80
2022/04/29 07:44:33;;;;;;;14.05;9.65;;;;;;;29.45;17.30;99234.16;5084349;28;20036;-80
2022/04/29 07:47:00;;;;;;;15.95;7.25;;;;;;;30.14;17.87;99238.38;5090203;28;20093;-81
2022/04/29 07:49:26;;;;;;;10.77;6.90;;;;;;;30.07;16.25;99232.91;5084679;28;20382;-81
2022/04/29 07:51:52;;;;;;;12.52;7.32;;;;;;;29.01;17.69;99240.47;5086923;28;20050;-81
2022/04/29 07:54:19;;;;;;;9.43;6.03;;;;;;;29.67;17.20;99237.22;5066698;28;20055;-81
2022/04/29 07:56:45;;;;;;;7.95;5.18;;;;;;;30.69;16.41;99242.84;5063974;28;20036;-81
2022/04/29 07:59:11;;;;;;;12.05;6.72;;;;;;;30.40;15.83;99242.91;5067660;28;20025;-81
2022/04/29 08:01:40;;;;;;;7.78;4.85;;;;;;;31.03;15.73;99228.03;5083546;28;20039;-81
2022/04/29 08:04:06;;;;;;;10.90;5.25;;;;;;;30.68;16.01;99236.38;5088269;28;20024;-81
2022/04/29 08:06:32;;;;;;;10.18;5.18;;;;;;;30.58;16.49;99231.81;5086636;28;20028;-81
2022/04/29 08:08:58;;;;;;;7.63;4.55;;;;;;;30.03;16.13;99233.00;5086514;28;20038;-81
2022/04/29 08:11:24;;;;;;;10.43;7.05;;;;;;;27.78;17.83;99243.81;5082362;28;20095;-81
2022/04/29 08:13:50;;;;;;;5.57;4.20;;;;;;;28.32;17.34;99238.75;5082184;28;20564;-81
2022/04/29 08:16:16;;;;;;;8.25;5.53;;;;;;;26.35;19.65;99225.94;5082739;28;20025;-81
2022/04/29 08:18:42;;;;;;;12.02;6.18;;;;;;;28.09;18.58;99236.81;5083796;28;20067;-81
2022/04/29 08:21:08;;;;;;;9.68;5.30;;;;;;;29.91;17.41;99227.28;5084097;28;20028;-81
2022/04/29 08:23:34;;;;;;;7.18;4.97;;;;;;;30.98;17.14;99228.59;5087286;28;20089;-81
2022/04/29 08:26:01;;;;;;;8.75;5.68;;;;;;;30.75;15.54;99226.84;5087804;28;20111;-81
2022/04/29 08:28:28;;;;;;;11.10;5.63;;;;;;;30.32;16.14;99230.13;5083644;28;20037;-81
2022/04/29 08:30:54;;;;;;;6.72;4.13;;;;;;;30.56;15.21;99225.00;5084033;28;20397;-81
2022/04/29 08:33:21;;;;;;;6.78;4.53;;;;;;;29.52;17.16;99224.69;5081170;28;20084;-81
2022/04/29 08:35:47;;;;;;;6.63;4.10;;;;;;;29.29;17.13;99234.16;5081820;28;20032;-80
2022/04/29 08:38:14;;;;;;;6.60;4.40;;;;;;;27.80;17.61;99232.91;5084611;28;20028;-81
2022/04/29 08:40:44;;;;;;;6.75;3.88;;;;;;;28.92;17.35;99223.31;5086699;28;20040;-81
2022/04/29 08:43:14;;;;;;;7.38;5.15;;;;;;;29.79;16.16;99220.31;5084956;28;20028;-81
2022/04/29 08:45:42;;;;;;;7.00;3.93;;;;;;;30.58;15.69;99214.81;5084701;28;20094;-81
2022/04/29 08:48:09;;;;;;;10.27;5.03;;;;;;;30.07;16.38;99224.41;5081608;28;20617;-81
2022/04/29 08:50:35;;;;;;;7.40;4.90;;;;;;;29.33;16.27;99220.72;5083801;28;20474;-80
2022/04/29 08:53:02;;;;;;;9.93;4.82;;;;;;;29.54;16.98;99216.53;5081914;28;20503;-81
2022/04/29 09:01:01;;;;;;;6.78;4.30;;;;;;;30.89;15.60;99211.44;5084418;28;20043;-81
2022/04/29 09:03:29;;;;;;;6.43;3.92;;;;;;;30.30;15.29;99200.66;5083832;28;20085;-81
2022/04/29 09:05:55;;;;;;;6.88;4.65;;;;;;;28.73;16.84;99208.00;5079622;28;20031;-81
2022/04/29 09:08:23;;;;;;;5.55;3.75;;;;;;;29.32;15.57;99202.94;5083779;28;20032;-81
2022/04/29 09:11:00;;;;;;;5.25;3.33;;;;;;;30.03;15.82;99201.06;5080956;28;20036;-81
2022/04/29 09:13:28;;;;;;;6.55;4.78;;;;;;;27.67;17.50;99201.72;5083212;28;20035;-81
2022/04/29 09:15:59;;;;;;;6.85;3.72;;;;;;;28.50;16.65;99205.25;5089395;28;20389;-81
2022/04/29 09:18:39;;;;;;;5.43;3.17;;;;;;;30.15;15.22;99194.63;5081988;28;20025;-81
2022/04/29 09:21:11;;;;;;;3.88;3.17;;;;;;;30.64;15.26;99189.53;5082844;28;20028;-81
2022/04/29 09:23:45;;;;;;;4.18;3.00;;;;;;;30.84;14.10;99189.28;5082539;28;20028;-81
2022/04/29 09:26:22;;;;;;;4.13;2.85;;;;;;;31.19;13.23;99191.00;5085899;28;20421;-81
2022/04/29 09:28:49;;;;;;;3.88;2.28;;;;;;;31.85;13.33;99190.75;5082755;28;20028;-81
2022/04/29 09:31:16;;;;;;;3.47;2.22;;;;;;;31.78;13.27;99191.00;5081184;28;20028;-81
2022/04/29 09:33:56;;;;;;;5.28;2.42;;;;;;;30.93;12.93;99192.28;5083495;28;20039;-81
2022/04/29 09:36:24;;;;;;;2.53;2.25;;;;;;;30.53;13.65;99187.00;5084877;28;20385;-80
2022/04/29 09:41:52;;;;;;;4.60;3.35;;;;;;;29.43;14.66;99180.81;5082954;28;20056;-81
2022/04/29 09:44:32;;;;;;;3.22;2.20;;;;;;;30.48;14.21;99189.63;5079032;28;20035;-81
2022/04/29 09:47:11;;;;;;;3.33;2.45;;;;;;;30.86;13.46;99186.78;5084201;28;20024;-81
2022/04/29 09:49:37;;;;;;;3.53;2.08;;;;;;;29.38;14.12;99187.00;5066321;28;20040;-81
2022/04/29 09:52:05;;;;;;;2.70;1.55;;;;;;;30.20;13.86;99191.22;5085070;28;20085;-81
2022/04/29 09:54:37;;;;;;;2.05;1.83;;;;;;;29.15;13.99;99190.00;5067071;28;20028;-81
2022/04/29 09:57:18;;;;;;;3.40;1.50;;;;;;;28.45;13.92;99191.69;5080663;28;20386;-81
2022/04/29 09:59:48;;;;;;;;;;;;;;;29.45;13.23;99190.91;5080376;28;20031;-81
2022/04/29 10:02:17;;;;;;;1.80;1.50;;;;;;;30.01;14.06;99187.31;5082036;28;19955;-81
2022/04/29 10:04:46;;;;;;;1.05;0.95;;;;;;;30.61;13.67;99182.72;5063872;28;20513;-81
2022/04/29 10:07:15;;;;;;;2.92;1.27;;;;;;;31.16;13.17;99178.53;5081512;28;20020;-81
2022/04/29 10:09:46;;;;;;;9.65;1.38;;;;;;;31.31;12.53;99178.84;5082079;28;20028;-81
2022/04/29 10:12:14;;;;;;;2.22;1.13;;;;;;;30.97;12.70;99181.63;5082527;28;20044;-81
2022/04/29 10:14:42;;;;;;;1.55;1.13;;;;;;;31.14;12.22;99180.22;5085263;28;20052;-81
2022/04/29 10:23:15;;;;;;;2.25;0.75;;;;;;;32.42;12.52;99168.72;5087805;28;20131;-81
2022/04/29 10:25:47;;;;;;;1.90;0.85;;;;;;;32.44;12.31;99169.06;5087140;28;20024;-81
2022/04/29 10:28:19;;;;;;;2.13;0.85;;;;;;;32.59;12.61;99162.38;5089469;28;20031;-81
2022/04/29 10:30:45;;;;;;;1.08;0.90;;;;;;;31.30;12.25;99160.22;5089688;28;20035;-81
2022/04/29 10:33:13;;;;;;;2.08;0.80;;;;;;;30.39;13.13;99156.28;5087064;28;20040;-81
2022/04/29 10:35:53;;;;;;;3.38;1.15;;;;;;;31.31;12.50;99153.28;5082630;28;20393;-81
2022/04/29 10:38:39;;;;;;;0.70;0.70;;;;;;;31.23;12.79;99151.94;5082897;28;20038;-81
2022/04/29 10:41:24;;;;;;;2.63;1.30;;;;;;;31.63;12.20;99158.66;5086244;28;20039;-81
2022/04/29 10:43:50;;;;;;;1.55;1.25;;;;;;;30.63;12.83;99149.03;5090561;28;20032;-81
2022/04/29 10:46:21;;;;;;;1.40;0.80;;;;;;;31.46;13.09;99147.94;5084875;28;20043;-81
2022/04/29 10:48:52;;;;;;;;;;;;;;;32.36;11.73;99145.00;5083452;28;20381;-81
2022/04/29 10:51:22;;;;;;;1.85;0.80;;;;;;;32.90;11.62;99141.63;5086723;28;20384;-81
2022/04/29 10:53:51;;;;;;;2.78;1.38;;;;;;;33.52;12.14;99140.19;5083977;28;20181;-81
2022/04/29 10:56:32;;;;;;;1.13;0.65;;;;;;;34.13;11.54;99133.41;5090389;28;20028;-81
2022/04/29 10:59:14;;;;;;;1.30;0.90;;;;;;;34.56;11.15;99135.84;5087970;28;21312;-81
2022/04/29 11:01:46;;;;;;;1.60;1.00;;;;;;;34.91;11.25;99135.38;5085272;28;20047;-81
2022/04/29 11:04:15;;;;;;;3.53;0.98;;;;;;;34.17;11.19;99133.25;5086624;28;20444;-81
2022/04/29 11:06:48;;;;;;;1.50;0.88;;;;;;;33.85;11.98;99132.63;5068490;28;20089;-81
2022/04/29 11:09:49;;;;;;;2.78;1.02;;;;;;;34.05;11.99;99130.06;5066767;28;20485;-81
2022/04/29 11:12:31;;;;;;;;;;;;;;;34.44;11.12;99128.25;5083501;28;20048;-81
2022/04/29 11:15:16;;;;;;;2.65;0.90;;;;;;;34.58;11.68;99126.78;5088664;28;19928;-81
2022/04/29 11:17:43;;;;;;;1.55;0.93;;;;;;;34.44;11.34;99125.41;5086749;28;20115;-81
2022/04/29 11:20:21;;;;;;;3.03;0.75;;;;;;;34.37;11.31;99117.19;5086038;28;20112;-81
2022/04/29 11:25:59;;;;;;;1.50;1.08;;;;;;;32.47;12.29;99125.47;5082663;28;20069;-81
2022/04/29 11:28:27;;;;;;;1.83;1.00;;;;;;;32.59;11.82;99119.72;5085367;28;20028;-81
2022/04/29 11:31:02;;;;;;;1.00;0.82;;;;;;;32.63;11.79;99113.88;5082311;28;20397;-81
2022/04/29 11:33:28;;;;;;;0.70;0.70;;;;;;;33.13;11.71;99113.41;5088219;28;20060;-81
2022/04/29 11:36:09;;;;;;;1.85;0.80;;;;;;;33.76;11.11;99114.72;5086447;28;20032;-80
2022/04/29 11:38:46;;;;;;;2.38;1.20;;;;;;;34.12;11.00;99103.31;5084050;28;20112;-80
2022/04/29 11:41:21;;;;;;;1.35;1.08;;;;;;;33.94;10.60;99106.16;5082736;28;20036;-80
2022/04/29 11:43:51;;;;;;;1.85;0.90;;;;;;;33.97;11.69;99096.66;5082231;28;20038;-80
2022/04/29 11:46:18;;;;;;;1.13;0.90;;;;;;;33.70;11.13;99099.56;5087083;28;20032;-80
2022/04/29 11:49:10;;;;;;;1.08;0.98;;;;;;;33.41;9.92;99089.41;5085021;28;20035;-80
2022/04/29 11:51:36;;;;;;;1.02;0.80;;;;;;;33.59;10.33;99093.53;5080964;28;20043;-80
2022/04/29 11:54:04;;;;;;;1.27;1.13;;;;;;;33.35;11.25;99082.75;5086563;28;20146;-80
2022/04/29 11:56:39;;;;;;;0.90;0.88;;;;;;;33.27;11.24;99077.84;5083635;28;20099;-80
2022/04/29 11:59:09;;;;;;;0.80;0.70;;;;;;;33.92;11.91;99068.81;5083199;28;20028;-80
2022/04/29 12:01:36;;;;;;;1.33;0.82;;;;;;;34.56;11.99;99075.13;5080890;28;20036;-80
2022/04/29 12:04:03;;;;;;;1.27;0.80;;;;;;;34.98;11.54;99070.16;5083672;28;20097;-80
2022/04/29 12:06:29;;;;;;;1.23;0.60;;;;;;;35.18;11.31;99067.47;5088073;28;20040;-80
2022/04/29 12:08:56;;;;;;;1.02;0.93;;;;;;;34.95;10.30;99056.03;5087751;28;20032;-81
2022/04/29 12:11:27;;;;;;;1.33;1.08;;;;;;;33.59;11.04;99065.03;5086845;28;20036;-80